Time;durP1;ratioP1;P1;durP2;ratioP2;P2;SDS_P1;SDS_P2;PMS_P1;PMS_P2;Temp;Humidity;BMP_temperature;BMP_pressure;BME280_temperature;BME280_humidity;BME280_pressure;Samples;Min_cycle;Max_cycle;Signal;HPM_P1;HPM_P2
2023/03/06 00:00:16;;;;;;;0.80;0.80;;;;;;;;;;5001338;28;20295;-78
2023/03/06 00:02:42;;;;;;;0.83;0.83;;;;;;;;;;4997019;28;20213;-80
2023/03/06 00:05:08;;;;;;;0.90;0.90;;;;;;;;;;4996862;28;20181;-79
2023/03/06 00:07:34;;;;;;;0.90;0.90;;;;;;;;;;4996784;28;20740;-78
2023/03/06 00:10:00;;;;;;;0.90;0.90;;;;;;;;;;4997260;28;20205;-78
2023/03/06 00:12:26;;;;;;;0.83;0.83;;;;;;;;;;4996933;28;20205;-79
2023/03/06 00:14:52;;;;;;;0.80;0.80;;;;;;;;;;4997392;28;20382;-79
2023/03/06 00:17:18;;;;;;;0.80;0.80;;;;;;;;;;4997481;28;20548;-78
2023/03/06 00:19:44;;;;;;;0.80;0.80;;;;;;;;;;4997048;28;20550;-80
2023/03/06 00:22:14;;;;;;;0.87;0.87;;;;;;;;;;4997245;28;20548;-79
2023/03/06 00:24:41;;;;;;;0.93;0.93;;;;;;;;;;4997533;28;20182;-79
2023/03/06 00:27:07;;;;;;;0.90;0.90;;;;;;;;;;4998151;28;20256;-79
2023/03/06 00:29:33;;;;;;;0.90;0.90;;;;;;;;;;4997435;28;20181;-79
2023/03/06 00:31:59;;;;;;;0.90;0.90;;;;;;;;;;4997328;28;20256;-79
2023/03/06 00:34:25;;;;;;;0.87;0.87;;;;;;;;;;4997522;28;20660;-79
2023/03/06 00:36:51;;;;;;;0.87;0.87;;;;;;;;;;5009653;28;20189;-77
2023/03/06 00:39:17;;;;;;;0.80;0.80;;;;;;;;;;5013096;28;20192;-77
2023/03/06 00:41:43;;;;;;;0.70;0.70;;;;;;;;;;5003015;28;20644;-79
2023/03/06 00:44:09;;;;;;;0.90;0.90;;;;;;;;;;4996140;28;20296;-79
2023/03/06 00:46:35;;;;;;;0.90;0.90;;;;;;;;;;4996836;28;20212;-79
2023/03/06 00:49:07;;;;;;;1.00;1.00;;;;;;;;;;4996933;28;20177;-79
2023/03/06 00:51:33;;;;;;;0.90;0.90;;;;;;;;;;4994999;28;20196;-79
2023/03/06 00:53:59;;;;;;;0.90;0.90;;;;;;;;;;4996330;28;20263;-78
2023/03/06 00:56:25;;;;;;;0.90;0.90;;;;;;;;;;4996839;28;20217;-79
2023/03/06 00:58:51;;;;;;;0.90;0.90;;;;;;;;;;4996820;28;20177;-79
2023/03/06 01:01:17;;;;;;;0.80;0.80;;;;;;;;;;4999457;28;20205;-77
2023/03/06 01:03:42;;;;;;;0.90;0.90;;;;;;;;;;5006657;28;20208;-77
2023/03/06 01:06:08;;;;;;;0.80;0.80;;;;;;;;;;5006473;28;20181;-77
2023/03/06 01:08:34;;;;;;;0.90;0.90;;;;;;;;;;5005645;28;20187;-79
2023/03/06 01:11:00;;;;;;;0.90;0.90;;;;;;;;;;4996941;28;20185;-78
2023/03/06 01:13:26;;;;;;;0.90;0.90;;;;;;;;;;4995923;28;20201;-79
2023/03/06 01:15:52;;;;;;;0.80;0.80;;;;;;;;;;4997132;28;20217;-79
2023/03/06 01:18:18;;;;;;;0.80;0.80;;;;;;;;;;4996331;28;20181;-78
2023/03/06 01:20:44;;;;;;;0.80;0.80;;;;;;;;;;4996243;28;20177;-78
2023/03/06 01:23:10;;;;;;;0.80;0.80;;;;;;;;;;4995917;28;20299;-79
2023/03/06 01:25:36;;;;;;;0.80;0.80;;;;;;;;;;4995934;28;20184;-80
2023/03/06 01:28:03;;;;;;;0.90;0.90;;;;;;;;;;4996010;28;20507;-79
2023/03/06 01:30:28;;;;;;;0.90;0.90;;;;;;;;;;4996240;28;20530;-78
2023/03/06 01:32:54;;;;;;;1.00;1.00;;;;;;;;;;4995542;28;20204;-79
2023/03/06 01:35:20;;;;;;;0.87;0.87;;;;;;;;;;4996472;28;20680;-79
2023/03/06 01:37:46;;;;;;;0.90;0.90;;;;;;;;;;4996040;28;20181;-79
2023/03/06 01:40:13;;;;;;;0.90;0.90;;;;;;;;;;4995829;28;20201;-79
2023/03/06 01:42:39;;;;;;;0.90;0.90;;;;;;;;;;4995824;28;20197;-79
2023/03/06 01:45:08;;;;;;;0.87;0.87;;;;;;;;;;4997057;28;20181;-79
2023/03/06 01:47:34;;;;;;;0.90;0.90;;;;;;;;;;4996386;28;20197;-78
2023/03/06 01:50:02;;;;;;;0.87;0.87;;;;;;;;;;4995294;28;20683;-79
2023/03/06 01:52:31;;;;;;;0.90;0.90;;;;;;;;;;4996470;28;20267;-79
2023/03/06 01:55:10;;;;;;;0.90;0.90;;;;;;;;;;4995887;28;20304;-79
2023/03/06 01:57:52;;;;;;;0.80;0.80;;;;;;;;;;4996232;28;20185;-79
2023/03/06 02:00:20;;;;;;;0.80;0.80;;;;;;;;;;5010634;28;20185;-78
2023/03/06 02:03:03;;;;;;;1.00;1.00;;;;;;;;;;5011738;28;20260;-79
2023/03/06 02:05:29;;;;;;;0.90;0.90;;;;;;;;;;4997229;28;20192;-80
2023/03/06 02:07:56;;;;;;;1.00;1.00;;;;;;;;;;4996707;28;20185;-79
2023/03/06 02:10:22;;;;;;;1.00;1.00;;;;;;;;;;4996187;28;20188;-79
2023/03/06 02:12:50;;;;;;;0.80;0.80;;;;;;;;;;4995038;28;20201;-79
2023/03/06 02:15:18;;;;;;;0.83;0.83;;;;;;;;;;4995945;28;20260;-79
2023/03/06 02:17:45;;;;;;;0.90;0.90;;;;;;;;;;4995900;28;20199;-79
2023/03/06 02:20:29;;;;;;;0.80;0.80;;;;;;;;;;4995697;28;20177;-80
2023/03/06 02:23:04;;;;;;;0.80;0.80;;;;;;;;;;4993959;28;20197;-78
2023/03/06 02:25:35;;;;;;;0.90;0.90;;;;;;;;;;4997004;28;20181;-79
2023/03/06 02:28:01;;;;;;;0.90;0.90;;;;;;;;;;4996504;28;20177;-80
2023/03/06 02:30:28;;;;;;;0.90;0.90;;;;;;;;;;4996991;28;20192;-81
2023/03/06 02:32:55;;;;;;;0.93;0.93;;;;;;;;;;4996296;28;20223;-78
2023/03/06 02:35:29;;;;;;;0.93;0.93;;;;;;;;;;4997207;28;20213;-78
2023/03/06 02:37:56;;;;;;;0.90;0.90;;;;;;;;;;5001613;28;20181;-79
2023/03/06 02:40:22;;;;;;;1.00;1.00;;;;;;;;;;5006214;28;20177;-80
2023/03/06 02:42:49;;;;;;;0.87;0.87;;;;;;;;;;5001150;28;20689;-80
2023/03/06 02:45:19;;;;;;;0.80;0.80;;;;;;;;;;4995051;28;20244;-80
2023/03/06 02:47:45;;;;;;;0.90;0.90;;;;;;;;;;4995719;28;20181;-80
2023/03/06 02:50:11;;;;;;;1.00;1.00;;;;;;;;;;4995460;28;20181;-80
2023/03/06 02:52:37;;;;;;;0.90;0.90;;;;;;;;;;5001744;28;20269;-79
2023/03/06 02:55:03;;;;;;;0.93;0.93;;;;;;;;;;5004860;28;20441;-79
2023/03/06 02:57:29;;;;;;;1.00;1.00;;;;;;;;;;5005272;28;20623;-81
2023/03/06 02:59:55;;;;;;;0.97;0.97;;;;;;;;;;5001180;28;20182;-79
2023/03/06 03:02:21;;;;;;;0.90;0.90;;;;;;;;;;4994674;28;20224;-80
2023/03/06 03:04:47;;;;;;;0.90;0.90;;;;;;;;;;4994775;28;20177;-80
2023/03/06 03:07:13;;;;;;;0.80;0.80;;;;;;;;;;4995110;28;20177;-80
2023/03/06 03:09:39;;;;;;;0.90;0.90;;;;;;;;;;4995080;28;20188;-80
2023/03/06 03:12:06;;;;;;;0.80;0.80;;;;;;;;;;4996050;28;20177;-80
2023/03/06 03:14:32;;;;;;;0.80;0.80;;;;;;;;;;4998813;28;20320;-80
2023/03/06 03:16:58;;;;;;;0.90;0.90;;;;;;;;;;4998496;28;20311;-79
2023/03/06 03:19:24;;;;;;;0.90;0.90;;;;;;;;;;4998674;28;20775;-80
2023/03/06 03:21:50;;;;;;;0.90;0.90;;;;;;;;;;4998227;28;20276;-81
2023/03/06 03:24:16;;;;;;;0.90;0.90;;;;;;;;;;4997824;28;20409;-80
2023/03/06 03:26:42;;;;;;;0.93;0.93;;;;;;;;;;4998652;28;20189;-80
2023/03/06 03:29:09;;;;;;;0.77;0.77;;;;;;;;;;4999080;28;20185;-80
2023/03/06 03:31:35;;;;;;;0.90;0.90;;;;;;;;;;4998324;28;20208;-79
2023/03/06 03:34:01;;;;;;;0.90;0.90;;;;;;;;;;5000220;28;20555;-79
2023/03/06 03:36:27;;;;;;;0.90;0.90;;;;;;;;;;4998135;28;20326;-79
2023/03/06 03:38:54;;;;;;;0.90;0.90;;;;;;;;;;4998053;28;20188;-79
2023/03/06 03:41:20;;;;;;;0.90;0.90;;;;;;;;;;4997690;28;20672;-79
2023/03/06 03:43:46;;;;;;;0.97;0.97;;;;;;;;;;4996976;28;20219;-79
2023/03/06 03:46:12;;;;;;;0.90;0.90;;;;;;;;;;4997057;28;20185;-78
2023/03/06 03:48:38;;;;;;;0.90;0.90;;;;;;;;;;4997276;28;20177;-79
2023/03/06 03:51:05;;;;;;;0.87;0.87;;;;;;;;;;4996825;28;20730;-79
2023/03/06 03:53:31;;;;;;;0.83;0.83;;;;;;;;;;4997224;28;20197;-78
2023/03/06 03:55:57;;;;;;;0.90;0.90;;;;;;;;;;4996625;28;20205;-78
2023/03/06 03:58:23;;;;;;;0.90;0.90;;;;;;;;;;4996730;28;20177;-79
2023/03/06 04:00:49;;;;;;;1.00;1.00;;;;;;;;;;4996369;28;20187;-78
2023/03/06 04:03:15;;;;;;;0.90;0.90;;;;;;;;;;4996771;28;20221;-79
2023/03/06 04:05:41;;;;;;;0.90;0.90;;;;;;;;;;4998057;28;20189;-80
2023/03/06 04:08:07;;;;;;;0.87;0.87;;;;;;;;;;4998520;28;20200;-79
2023/03/06 04:10:33;;;;;;;0.93;0.93;;;;;;;;;;4998358;28;20604;-80
2023/03/06 04:12:59;;;;;;;0.90;0.90;;;;;;;;;;5000790;28;20197;-78
2023/03/06 04:15:25;;;;;;;0.90;0.90;;;;;;;;;;5012049;28;20213;-78
2023/03/06 04:17:51;;;;;;;0.90;0.90;;;;;;;;;;5010417;28;20181;-78
2023/03/06 04:20:17;;;;;;;0.90;0.90;;;;;;;;;;4997482;28;20181;-79
2023/03/06 04:22:43;;;;;;;0.90;0.90;;;;;;;;;;4995563;28;20216;-79
2023/03/06 04:25:09;;;;;;;0.80;0.80;;;;;;;;;;4995582;28;20181;-79
2023/03/06 04:27:35;;;;;;;0.90;0.90;;;;;;;;;;4996306;28;20332;-79
2023/03/06 04:30:01;;;;;;;0.83;0.83;;;;;;;;;;4996506;28;20213;-79
2023/03/06 04:32:27;;;;;;;0.90;0.90;;;;;;;;;;4995834;28;20227;-79
2023/03/06 04:34:53;;;;;;;1.00;1.00;;;;;;;;;;4996095;28;20201;-80
2023/03/06 04:37:20;;;;;;;1.10;1.10;;;;;;;;;;4995627;28;20185;-79
2023/03/06 04:39:46;;;;;;;0.90;0.90;;;;;;;;;;4996078;28;20220;-80
2023/03/06 04:42:12;;;;;;;0.90;0.90;;;;;;;;;;4995286;28;20185;-78
2023/03/06 04:44:38;;;;;;;0.90;0.90;;;;;;;;;;4995847;28;20196;-79
2023/03/06 04:47:04;;;;;;;0.90;0.90;;;;;;;;;;4996752;28;20636;-79
2023/03/06 04:49:30;;;;;;;0.90;0.90;;;;;;;;;;4995802;28;20177;-80
2023/03/06 04:51:56;;;;;;;0.80;0.80;;;;;;;;;;4996899;28;20240;-80
2023/03/06 04:54:22;;;;;;;0.90;0.90;;;;;;;;;;4997212;28;20200;-81
2023/03/06 04:56:48;;;;;;;0.90;0.90;;;;;;;;;;4997268;28;20221;-79
2023/03/06 04:59:14;;;;;;;0.80;0.80;;;;;;;;;;4998122;28;20239;-80
2023/03/06 05:01:40;;;;;;;0.90;0.90;;;;;;;;;;4997675;28;20183;-79
2023/03/06 05:04:06;;;;;;;0.80;0.80;;;;;;;;;;4996494;28;20201;-79
2023/03/06 05:06:32;;;;;;;1.00;1.00;;;;;;;;;;4997177;28;20240;-79
2023/03/06 05:08:58;;;;;;;0.90;0.90;;;;;;;;;;4997074;28;20535;-79
2023/03/06 05:11:24;;;;;;;0.80;0.80;;;;;;;;;;4997837;28;20208;-79
2023/03/06 05:13:50;;;;;;;0.80;0.80;;;;;;;;;;4996291;28;20212;-79
2023/03/06 05:16:16;;;;;;;0.90;0.90;;;;;;;;;;4995714;28;20704;-79
2023/03/06 05:18:42;;;;;;;0.90;0.90;;;;;;;;;;4995570;28;20188;-79
2023/03/06 05:21:08;;;;;;;0.80;0.80;;;;;;;;;;4996233;28;20787;-79
2023/03/06 05:23:37;;;;;;;0.90;0.90;;;;;;;;;;4994115;28;20193;-78
2023/03/06 05:26:12;;;;;;;0.93;0.93;;;;;;;;;;4995613;28;20169;-79
2023/03/06 05:28:38;;;;;;;0.90;0.90;;;;;;;;;;4996195;28;20179;-80
2023/03/06 05:31:05;;;;;;;0.90;0.90;;;;;;;;;;4995966;28;20670;-79
2023/03/06 05:33:35;;;;;;;1.00;1.00;;;;;;;;;;4995029;28;20220;-80
2023/03/06 05:36:01;;;;;;;0.80;0.80;;;;;;;;;;4995520;28;20212;-80
2023/03/06 05:38:27;;;;;;;0.97;0.97;;;;;;;;;;4995912;28;20177;-79
2023/03/06 05:40:53;;;;;;;0.90;0.90;;;;;;;;;;4995862;28;20169;-79
2023/03/06 05:43:19;;;;;;;0.90;0.90;;;;;;;;;;4995801;28;20552;-79
2023/03/06 05:45:45;;;;;;;0.80;0.80;;;;;;;;;;4996432;28;20260;-79
2023/03/06 05:48:12;;;;;;;0.80;0.80;;;;;;;;;;4996557;28;20231;-79
2023/03/06 05:50:39;;;;;;;0.90;0.90;;;;;;;;;;4996697;28;20173;-79
2023/03/06 05:53:05;;;;;;;0.90;0.90;;;;;;;;;;4996081;28;20702;-79
2023/03/06 05:55:31;;;;;;;0.90;0.90;;;;;;;;;;4996740;28;20454;-79
2023/03/06 05:57:57;;;;;;;0.90;0.90;;;;;;;;;;4996424;28;20553;-80
2023/03/06 06:00:23;;;;;;;0.90;0.90;;;;;;;;;;4997439;28;20520;-80
2023/03/06 06:02:49;;;;;;;0.90;0.90;;;;;;;;;;4997734;28;20197;-77
2023/03/06 06:05:15;;;;;;;0.90;0.90;;;;;;;;;;4994916;28;20545;-79
2023/03/06 06:07:41;;;;;;;0.90;0.90;;;;;;;;;;4995955;28;20180;-78
2023/03/06 06:10:08;;;;;;;1.00;1.00;;;;;;;;;;4995558;28;20220;-80
2023/03/06 06:12:34;;;;;;;0.90;0.90;;;;;;;;;;4995159;28;20320;-80
2023/03/06 06:15:00;;;;;;;0.90;0.90;;;;;;;;;;4995534;28;20233;-80
2023/03/06 06:17:26;;;;;;;1.00;1.00;;;;;;;;;;4996255;28;20181;-81
2023/03/06 06:19:52;;;;;;;0.90;0.90;;;;;;;;;;4996624;28;20192;-80
2023/03/06 06:22:17;;;;;;;0.90;0.90;;;;;;;;;;4997192;28;20197;-79
2023/03/06 06:24:43;;;;;;;0.90;0.90;;;;;;;;;;4996901;28;20192;-80
2023/03/06 06:27:09;;;;;;;0.87;0.87;;;;;;;;;;4996927;28;20287;-79
2023/03/06 06:29:35;;;;;;;0.90;0.90;;;;;;;;;;4997037;28;20184;-80
2023/03/06 06:32:01;;;;;;;0.90;0.90;;;;;;;;;;5007045;28;20276;-79
2023/03/06 06:34:29;;;;;;;0.80;0.80;;;;;;;;;;5010736;28;20181;-78
2023/03/06 06:36:55;;;;;;;0.90;0.90;;;;;;;;;;5009585;28;20283;-78
2023/03/06 06:39:22;;;;;;;0.83;0.83;;;;;;;;;;5004111;28;20181;-81
2023/03/06 06:41:50;;;;;;;0.90;0.90;;;;;;;;;;4997026;28;20180;-80
2023/03/06 06:44:16;;;;;;;0.80;0.80;;;;;;;;;;4997965;28;20197;-80
2023/03/06 06:46:44;;;;;;;0.90;0.90;;;;;;;;;;5002529;28;20165;-79
2023/03/06 06:49:11;;;;;;;0.80;0.80;;;;;;;;;;5009877;28;20181;-80
2023/03/06 06:51:37;;;;;;;0.90;0.90;;;;;;;;;;5008553;28;20173;-79
2023/03/06 06:54:03;;;;;;;0.90;0.90;;;;;;;;;;5008279;28;20579;-80
2023/03/06 06:56:29;;;;;;;0.80;0.80;;;;;;;;;;5006977;28;20209;-79
2023/03/06 06:58:58;;;;;;;0.87;0.87;;;;;;;;;;5006131;28;20177;-80
2023/03/06 07:01:25;;;;;;;0.90;0.90;;;;;;;;;;5005711;28;20259;-79
2023/03/06 07:03:51;;;;;;;0.90;0.90;;;;;;;;;;5005338;28;20227;-78
2023/03/06 07:06:17;;;;;;;0.80;0.80;;;;;;;;;;5006961;28;20184;-79
2023/03/06 07:08:43;;;;;;;0.80;0.80;;;;;;;;;;5004079;28;20288;-80
2023/03/06 07:11:11;;;;;;;0.80;0.80;;;;;;;;;;4999317;28;20231;-80
2023/03/06 07:13:37;;;;;;;0.80;0.80;;;;;;;;;;4996958;28;20578;-79
2023/03/06 07:16:03;;;;;;;0.90;0.90;;;;;;;;;;4997163;28;20550;-78
2023/03/06 07:18:29;;;;;;;0.90;0.90;;;;;;;;;;4999003;28;20181;-79
2023/03/06 07:20:56;;;;;;;0.90;0.90;;;;;;;;;;4998248;28;20185;-81
2023/03/06 07:23:22;;;;;;;0.80;0.80;;;;;;;;;;4998146;28;20256;-80
2023/03/06 07:25:48;;;;;;;0.90;0.90;;;;;;;;;;4998771;28;20227;-80
2023/03/06 07:28:14;;;;;;;0.80;0.80;;;;;;;;;;5002202;28;20180;-79
2023/03/06 07:30:41;;;;;;;0.80;0.80;;;;;;;;;;4998022;28;20979;-80
2023/03/06 07:33:07;;;;;;;0.80;0.80;;;;;;;;;;4997227;28;20213;-79
2023/03/06 07:35:33;;;;;;;0.87;0.87;;;;;;;;;;4996644;28;20251;-80
2023/03/06 07:37:59;;;;;;;0.90;0.90;;;;;;;;;;4998522;28;20180;-80
2023/03/06 07:40:25;;;;;;;0.80;0.80;;;;;;;;;;4997957;28;20181;-79
2023/03/06 07:42:54;;;;;;;0.90;0.90;;;;;;;;;;4997993;28;20287;-80
2023/03/06 07:45:21;;;;;;;0.90;0.90;;;;;;;;;;4998498;28;20177;-79
2023/03/06 07:47:49;;;;;;;0.90;0.90;;;;;;;;;;4999124;28;20174;-80
2023/03/06 07:50:15;;;;;;;0.80;0.80;;;;;;;;;;5002973;28;20210;-78
2023/03/06 07:52:41;;;;;;;1.00;1.00;;;;;;;;;;5012540;28;20205;-78
2023/03/06 07:55:08;;;;;;;0.90;0.90;;;;;;;;;;5010834;28;20352;-79
2023/03/06 07:57:34;;;;;;;0.80;0.80;;;;;;;;;;4998566;28;20259;-79
2023/03/06 08:00:00;;;;;;;0.80;0.80;;;;;;;;;;4997171;28;20173;-79
2023/03/06 08:02:26;;;;;;;0.80;0.80;;;;;;;;;;4996801;28;20577;-80
2023/03/06 08:04:53;;;;;;;0.80;0.80;;;;;;;;;;4998049;28;20207;-79
2023/03/06 08:07:19;;;;;;;0.90;0.90;;;;;;;;;;4998881;28;20204;-79
2023/03/06 08:09:45;;;;;;;0.80;0.80;;;;;;;;;;4997358;28;20173;-79
2023/03/06 08:12:11;;;;;;;0.80;0.80;;;;;;;;;;4996973;28;20232;-79
2023/03/06 08:14:37;;;;;;;0.90;0.90;;;;;;;;;;4997259;28;20181;-79
2023/03/06 08:17:03;;;;;;;0.90;0.90;;;;;;;;;;4997684;28;20217;-79
2023/03/06 08:19:29;;;;;;;0.80;0.80;;;;;;;;;;5002785;28;20184;-79
2023/03/06 08:21:55;;;;;;;0.70;0.70;;;;;;;;;;5004681;28;20241;-79
2023/03/06 08:24:21;;;;;;;0.70;0.70;;;;;;;;;;5004212;28;20190;-79
2023/03/06 08:26:47;;;;;;;0.80;0.80;;;;;;;;;;4999936;28;20196;-79
2023/03/06 08:29:14;;;;;;;0.87;0.87;;;;;;;;;;4998746;28;20197;-79
2023/03/06 08:31:41;;;;;;;0.90;0.90;;;;;;;;;;4999610;28;20245;-79
2023/03/06 08:34:08;;;;;;;0.80;0.80;;;;;;;;;;4999603;28;20566;-79
2023/03/06 08:36:35;;;;;;;0.90;0.90;;;;;;;;;;5000301;28;20209;-79
2023/03/06 08:39:01;;;;;;;0.80;0.80;;;;;;;;;;4998869;28;20181;-79
2023/03/06 08:41:27;;;;;;;0.80;0.80;;;;;;;;;;4998351;28;20185;-79
2023/03/06 08:43:53;;;;;;;0.70;0.70;;;;;;;;;;4997471;28;20194;-79
2023/03/06 08:46:20;;;;;;;0.80;0.80;;;;;;;;;;4998932;28;20188;-79
2023/03/06 08:48:47;;;;;;;0.70;0.70;;;;;;;;;;4999150;28;20188;-79
2023/03/06 08:51:13;;;;;;;0.80;0.80;;;;;;;;;;4998870;28;20184;-79
2023/03/06 08:53:39;;;;;;;0.80;0.80;;;;;;;;;;4998186;28;20209;-79
2023/03/06 08:56:05;;;;;;;0.83;0.83;;;;;;;;;;4997835;28;20217;-80
2023/03/06 08:58:31;;;;;;;0.90;0.90;;;;;;;;;;4998096;28;20259;-79
2023/03/06 09:00:58;;;;;;;0.80;0.80;;;;;;;;;;4998456;28;20188;-80
2023/03/06 09:03:24;;;;;;;0.90;0.90;;;;;;;;;;4998389;28;20208;-79
2023/03/06 09:05:50;;;;;;;0.80;0.80;;;;;;;;;;5000173;28;20740;-79
2023/03/06 09:08:16;;;;;;;0.70;0.70;;;;;;;;;;5000082;28;20209;-79
2023/03/06 09:10:48;;;;;;;0.73;0.73;;;;;;;;;;4999871;28;20224;-78
2023/03/06 09:13:14;;;;;;;0.80;0.80;;;;;;;;;;5001079;28;20197;-79
2023/03/06 09:15:40;;;;;;;0.80;0.80;;;;;;;;;;5000887;28;20213;-78
2023/03/06 09:18:06;;;;;;;0.90;0.90;;;;;;;;;;5002195;28;20692;-78
2023/03/06 09:20:32;;;;;;;0.70;0.70;;;;;;;;;;5001973;28;20205;-78
2023/03/06 09:22:58;;;;;;;0.70;0.70;;;;;;;;;;4998924;28;20200;-79
2023/03/06 09:25:24;;;;;;;0.70;0.70;;;;;;;;;;4996429;28;20258;-79
2023/03/06 09:27:50;;;;;;;0.63;0.63;;;;;;;;;;4996694;28;20276;-79
2023/03/06 09:30:17;;;;;;;0.70;0.70;;;;;;;;;;4996318;28;20189;-79
2023/03/06 09:32:43;;;;;;;0.60;0.60;;;;;;;;;;4995964;28;20212;-79
2023/03/06 09:35:10;;;;;;;0.70;0.70;;;;;;;;;;4996619;28;20216;-80
2023/03/06 09:37:36;;;;;;;0.70;0.70;;;;;;;;;;4995894;28;20199;-79
2023/03/06 09:40:05;;;;;;;0.70;0.70;;;;;;;;;;4996683;28;20181;-79
2023/03/06 09:42:32;;;;;;;0.70;0.70;;;;;;;;;;4997267;28;20273;-79
2023/03/06 09:44:59;;;;;;;0.70;0.70;;;;;;;;;;4997005;28;20208;-80
2023/03/06 09:47:37;;;;;;;0.67;0.67;;;;;;;;;;4997272;28;20244;-79
2023/03/06 09:50:13;;;;;;;0.70;0.70;;;;;;;;;;4996544;28;20185;-80
2023/03/06 09:52:42;;;;;;;0.60;0.60;;;;;;;;;;4995813;28;20231;-79
2023/03/06 09:55:10;;;;;;;0.77;0.77;;;;;;;;;;4988598;28;20229;-79
2023/03/06 09:57:37;;;;;;;0.70;0.70;;;;;;;;;;4993225;28;20184;-80
2023/03/06 10:00:06;;;;;;;0.70;0.70;;;;;;;;;;4995696;28;20216;-80
2023/03/06 10:02:41;;;;;;;0.70;0.70;;;;;;;;;;4995420;28;20204;-79
2023/03/06 10:05:19;;;;;;;0.80;0.80;;;;;;;;;;4995124;28;20181;-79
2023/03/06 10:07:48;;;;;;;0.70;0.70;;;;;;;;;;4995908;28;20180;-79
2023/03/06 10:10:22;;;;;;;0.70;0.70;;;;;;;;;;4995748;28;20256;-79
2023/03/06 10:13:11;;;;;;;0.70;0.70;;;;;;;;;;4994836;28;20228;-79
2023/03/06 10:15:40;;;;;;;0.70;0.70;;;;;;;;;;4989284;28;20209;-80
2023/03/06 10:18:07;;;;;;;0.80;0.80;;;;;;;;;;4993439;28;20181;-81
2023/03/06 10:20:36;;;;;;;0.77;0.77;;;;;;;;;;4996720;28;20192;-80
2023/03/06 10:23:23;;;;;;;0.63;0.63;;;;;;;;;;4997790;28;20197;-80
2023/03/06 10:26:04;;;;;;;0.70;0.70;;;;;;;;;;5011707;28;20237;-79
2023/03/06 10:28:34;;;;;;;0.70;0.70;;;;;;;;;;5017366;28;20168;-78
2023/03/06 10:31:14;;;;;;;0.70;0.70;;;;;;;;;;5017390;28;20162;-78
2023/03/06 10:33:46;;;;;;;0.70;0.70;;;;;;;;;;5017664;28;20212;-78
2023/03/06 10:36:17;;;;;;;0.80;0.80;;;;;;;;;;5017826;28;20228;-78
2023/03/06 10:38:44;;;;;;;0.70;0.70;;;;;;;;;;5017727;28;20177;-79
2023/03/06 10:41:12;;;;;;;0.70;0.70;;;;;;;;;;5016489;28;20204;-79
2023/03/06 10:43:43;;;;;;;0.70;0.70;;;;;;;;;;5013987;28;20198;-79
2023/03/06 10:46:13;;;;;;;0.90;0.90;;;;;;;;;;4999151;28;20192;-79
2023/03/06 10:48:40;;;;;;;0.60;0.60;;;;;;;;;;4993041;28;20212;-79
2023/03/06 10:51:09;;;;;;;0.80;0.80;;;;;;;;;;4992906;28;20251;-79
2023/03/06 10:53:35;;;;;;;0.80;0.80;;;;;;;;;;4992407;28;20208;-79
2023/03/06 10:56:03;;;;;;;0.80;0.80;;;;;;;;;;4993060;28;20212;-79
2023/03/06 10:58:30;;;;;;;0.80;0.80;;;;;;;;;;4993513;28;20542;-79
2023/03/06 11:01:18;;;;;;;0.70;0.70;;;;;;;;;;4996121;28;20182;-80
2023/03/06 11:03:45;;;;;;;0.80;0.80;;;;;;;;;;4996394;28;20204;-79
2023/03/06 11:06:15;;;;;;;0.80;0.80;;;;;;;;;;4997191;28;20185;-80
2023/03/06 11:08:42;;;;;;;0.70;0.70;;;;;;;;;;4999175;28;20480;-80
2023/03/06 11:11:10;;;;;;;0.80;0.80;;;;;;;;;;5001384;28;20185;-80
2023/03/06 11:13:38;;;;;;;0.80;0.80;;;;;;;;;;5003021;28;20752;-80
2023/03/06 11:16:18;;;;;;;0.80;0.80;;;;;;;;;;5004548;28;20224;-79
2023/03/06 11:18:54;;;;;;;0.73;0.73;;;;;;;;;;5004627;28;20188;-79
2023/03/06 11:21:26;;;;;;;0.90;0.90;;;;;;;;;;5004766;28;20546;-81
2023/03/06 11:23:53;;;;;;;0.80;0.80;;;;;;;;;;5005362;28;20236;-80
2023/03/06 11:26:43;;;;;;;0.80;0.80;;;;;;;;;;5005091;28;20224;-79
2023/03/06 11:29:22;;;;;;;0.80;0.80;;;;;;;;;;5012832;28;20241;-78
2023/03/06 11:32:06;;;;;;;0.80;0.80;;;;;;;;;;5016206;28;20166;-79
2023/03/06 11:34:51;;;;;;;0.73;0.73;;;;;;;;;;5012064;28;20189;-78
2023/03/06 11:37:23;;;;;;;0.90;0.90;;;;;;;;;;5011618;28;20185;-79
2023/03/06 11:39:55;;;;;;;0.90;0.90;;;;;;;;;;5006574;28;20216;-80
2023/03/06 11:42:25;;;;;;;0.77;0.77;;;;;;;;;;5006105;28;20669;-81
2023/03/06 11:44:55;;;;;;;0.70;0.70;;;;;;;;;;5006070;28;20673;-80
2023/03/06 11:47:21;;;;;;;0.80;0.80;;;;;;;;;;5007250;28;20192;-80
2023/03/06 11:50:10;;;;;;;0.70;0.70;;;;;;;;;;5007637;28;20530;-80
2023/03/06 11:52:43;;;;;;;0.80;0.80;;;;;;;;;;5003784;28;20205;-80
2023/03/06 11:55:14;;;;;;;0.70;0.70;;;;;;;;;;5006978;28;20200;-79
2023/03/06 11:57:47;;;;;;;0.70;0.70;;;;;;;;;;5006663;28;20181;-80
2023/03/06 12:00:19;;;;;;;0.70;0.70;;;;;;;;;;5010593;28;20184;-79
2023/03/06 12:03:00;;;;;;;0.70;0.70;;;;;;;;;;5012765;28;20189;-78
2023/03/06 12:05:37;;;;;;;0.70;0.70;;;;;;;;;;5014194;28;20169;-79
2023/03/06 12:08:03;;;;;;;0.70;0.70;;;;;;;;;;5007568;28;20196;-80
2023/03/06 12:10:32;;;;;;;0.70;0.70;;;;;;;;;;5006302;28;20173;-80
2023/03/06 12:13:10;;;;;;;0.67;0.67;;;;;;;;;;5005372;28;20197;-80
2023/03/06 12:15:55;;;;;;;0.70;0.70;;;;;;;;;;5003668;28;20271;-79
2023/03/06 12:18:35;;;;;;;0.80;0.80;;;;;;;;;;4999449;28;20181;-79
2023/03/06 12:21:01;;;;;;;0.70;0.70;;;;;;;;;;5005360;28;20245;-80
2023/03/06 12:23:46;;;;;;;0.70;0.70;;;;;;;;;;4992658;28;20202;-80
2023/03/06 12:26:35;;;;;;;0.70;0.70;;;;;;;;;;5002621;28;20633;-79
2023/03/06 12:29:24;;;;;;;0.70;0.70;;;;;;;;;;5002343;28;20205;-79
2023/03/06 12:32:09;;;;;;;0.70;0.70;;;;;;;;;;5000525;28;20230;-80
2023/03/06 12:34:58;;;;;;;0.60;0.60;;;;;;;;;;4989193;28;20181;-79
2023/03/06 12:37:36;;;;;;;0.70;0.70;;;;;;;;;;4993879;28;20196;-80
2023/03/06 12:40:08;;;;;;;0.70;0.70;;;;;;;;;;5002368;28;20189;-79
2023/03/06 12:42:37;;;;;;;0.70;0.70;;;;;;;;;;4988906;28;20200;-80
2023/03/06 12:45:09;;;;;;;0.80;0.80;;;;;;;;;;5000654;28;20193;-79
2023/03/06 12:47:39;;;;;;;0.70;0.70;;;;;;;;;;5002382;28;20552;-79
2023/03/06 12:50:13;;;;;;;0.70;0.70;;;;;;;;;;5002949;28;20177;-79
2023/03/06 12:52:38;;;;;;;0.70;0.70;;;;;;;;;;4987635;28;20208;-79
2023/03/06 12:55:06;;;;;;;0.70;0.70;;;;;;;;;;4999199;28;20185;-79
2023/03/06 12:57:32;;;;;;;0.70;0.70;;;;;;;;;;5003941;28;20192;-80
2023/03/06 12:59:58;;;;;;;0.80;0.80;;;;;;;;;;5009374;28;20161;-78
2023/03/06 13:02:30;;;;;;;0.70;0.70;;;;;;;;;;5011956;28;20208;-78
2023/03/06 13:04:59;;;;;;;0.70;0.70;;;;;;;;;;5013504;28;20208;-78
2023/03/06 13:07:26;;;;;;;0.77;0.77;;;;;;;;;;5013085;28;20212;-78
2023/03/06 13:10:10;;;;;;;0.70;0.70;;;;;;;;;;5012830;28;20181;-78
2023/03/06 13:12:42;;;;;;;0.53;0.53;;;;;;;;;;5012805;28;20193;-79
2023/03/06 13:15:27;;;;;;;0.70;0.70;;;;;;;;;;5006388;28;20188;-79
2023/03/06 13:17:53;;;;;;;0.70;0.70;;;;;;;;;;5010348;28;20195;-78
2023/03/06 13:20:28;;;;;;;0.60;0.60;;;;;;;;;;5011293;28;20181;-79
2023/03/06 13:22:54;;;;;;;0.70;0.70;;;;;;;;;;5002982;28;20208;-79
2023/03/06 13:25:19;;;;;;;0.70;0.70;;;;;;;;;;5005090;28;20204;-79
2023/03/06 13:27:47;;;;;;;0.80;0.80;;;;;;;;;;5003604;28;20624;-79
2023/03/06 13:30:22;;;;;;;0.80;0.80;;;;;;;;;;5002908;28;20248;-81
2023/03/06 13:32:51;;;;;;;0.80;0.80;;;;;;;;;;5004540;28;20227;-81
2023/03/06 13:35:29;;;;;;;0.70;0.70;;;;;;;;;;5004201;28;20212;-79
2023/03/06 13:37:56;;;;;;;0.70;0.70;;;;;;;;;;5002902;28;20189;-78
2023/03/06 13:40:30;;;;;;;0.70;0.70;;;;;;;;;;5001024;28;20595;-78
2023/03/06 13:43:03;;;;;;;0.70;0.70;;;;;;;;;;4999020;28;20197;-78
2023/03/06 13:45:29;;;;;;;0.70;0.70;;;;;;;;;;5000295;28;20177;-77
2023/03/06 13:47:56;;;;;;;0.70;0.70;;;;;;;;;;4999453;28;20605;-78
2023/03/06 13:50:28;;;;;;;0.70;0.70;;;;;;;;;;5001176;28;20242;-77
2023/03/06 13:53:02;;;;;;;0.80;0.80;;;;;;;;;;5003848;28;20205;-77
2023/03/06 13:55:42;;;;;;;0.70;0.70;;;;;;;;;;4993240;28;20231;-77
2023/03/06 13:58:26;;;;;;;0.70;0.70;;;;;;;;;;4991441;28;20188;-76
2023/03/06 14:01:19;;;;;;;0.70;0.70;;;;;;;;;;4997006;28;20177;-77
2023/03/06 14:03:46;;;;;;;0.73;0.73;;;;;;;;;;4985944;28;20229;-77
2023/03/06 14:06:31;;;;;;;0.80;0.80;;;;;;;;;;4998890;28;20177;-77
2023/03/06 14:08:58;;;;;;;0.80;0.80;;;;;;;;;;4993313;28;20173;-78
2023/03/06 14:11:24;;;;;;;0.80;0.80;;;;;;;;;;4995270;28;20181;-80
2023/03/06 14:13:53;;;;;;;0.70;0.70;;;;;;;;;;4998233;28;20212;-77
2023/03/06 14:16:27;;;;;;;0.90;0.90;;;;;;;;;;4997939;28;20200;-78
2023/03/06 14:18:54;;;;;;;0.70;0.70;;;;;;;;;;4997664;28;20169;-78
2023/03/06 14:21:30;;;;;;;0.73;0.73;;;;;;;;;;4997377;28;20188;-77
2023/03/06 14:23:58;;;;;;;0.80;0.80;;;;;;;;;;4985330;28;20196;-77
2023/03/06 14:26:25;;;;;;;0.70;0.70;;;;;;;;;;4998735;28;20188;-77
2023/03/06 14:29:01;;;;;;;0.73;0.73;;;;;;;;;;4998175;28;20260;-78
2023/03/06 14:31:29;;;;;;;0.70;0.70;;;;;;;;;;4997802;28;20177;-79
2023/03/06 14:33:57;;;;;;;0.70;0.70;;;;;;;;;;4997367;28;20292;-78
2023/03/06 14:36:25;;;;;;;0.80;0.80;;;;;;;;;;4998325;28;20314;-78
2023/03/06 14:38:53;;;;;;;0.70;0.70;;;;;;;;;;4997782;28;20499;-78
2023/03/06 14:41:22;;;;;;;0.80;0.80;;;;;;;;;;4995671;28;20185;-77
2023/03/06 14:43:48;;;;;;;0.80;0.80;;;;;;;;;;4995441;28;20220;-78
2023/03/06 14:46:19;;;;;;;0.90;0.90;;;;;;;;;;5014972;28;20173;-77
2023/03/06 14:48:46;;;;;;;0.70;0.70;;;;;;;;;;5016861;28;20173;-76
2023/03/06 14:51:17;;;;;;;0.60;0.60;;;;;;;;;;5016845;28;20181;-78